Terminal Aerodrome Forecast
Issued by NWS

Home | Current Version | Previous Version | Text Only | Print | Product List | Glossary On
Versions: 1 2 3 4 5 6 7 8 9 10 11 12 13 14 15 16 17 18 19 20 21 22 23 24 25 26 27 28
000
FTUS44 KSJT 181142
TAFJCT
TAF
KJCT 181142Z 1812/1912 VRB04KT 5SM -SHRA BR OVC007
      TEMPO 1812/1814 2SM BR OVC004
     FM181900 33004KT P6SM OVC015
     FM182300 VRB03KT P6SM BKN040=

USA.gov is the U.S. government's official web portal to all federal, state and local government web resources and services.